createdAt,value
2017-07-05T00:00:01.006Z,95.50
2017-07-05T00:02:29.309Z,95.50
2017-07-05T00:04:57.789Z,95.50
2017-07-05T00:07:26.075Z,95.50
2017-07-05T00:09:54.426Z,95.60
2017-07-05T00:12:23.492Z,94.60
2017-07-05T00:14:51.816Z,94.20
2017-07-05T00:17:20.292Z,94.50
2017-07-05T00:19:49.582Z,94.90
2017-07-05T00:22:18.042Z,94.90
2017-07-05T00:24:47.166Z,94.90
2017-07-05T00:27:16.279Z,94.60
2017-07-05T00:29:44.631Z,94.60
2017-07-05T00:32:13.827Z,95.00
2017-07-05T00:34:42.889Z,94.80
2017-07-05T00:37:11.210Z,94.80
2017-07-05T00:39:39.516Z,94.90
2017-07-05T00:42:08.069Z,95.10
2017-07-05T00:44:36.367Z,95.50
2017-07-05T00:47:04.860Z,95.70
2017-07-05T00:49:33.405Z,95.70
2017-07-05T00:52:01.722Z,95.50
2017-07-05T00:54:30.976Z,95.60
2017-07-05T00:57:00.046Z,95.90
2017-07-05T00:59:29.159Z,96.30
2017-07-05T01:01:57.444Z,96.00
2017-07-05T01:04:25.767Z,95.60
2017-07-05T01:06:54.315Z,95.80
2017-07-05T01:09:22.784Z,96.00
2017-07-05T01:11:51.095Z,96.40
2017-07-05T01:14:19.534Z,96.80
2017-07-05T01:16:47.909Z,97.00
2017-07-05T01:19:17.016Z,96.50
2017-07-05T01:21:46.105Z,96.50
2017-07-05T01:24:15.160Z,96.30
2017-07-05T01:26:43.676Z,96.30
2017-07-05T01:29:12.779Z,95.80
2017-07-05T01:31:41.251Z,95.80
2017-07-05T01:34:09.645Z,95.80
2017-07-05T01:36:37.997Z,95.70
2017-07-05T01:39:07.095Z,95.60
2017-07-05T01:41:35.431Z,95.60
2017-07-05T01:44:03.779Z,95.90
2017-07-05T01:46:32.070Z,95.90
2017-07-05T01:49:00.401Z,94.90
2017-07-05T01:51:29.476Z,95.40
2017-07-05T01:53:58.709Z,95.50
2017-07-05T01:56:27.175Z,95.50
2017-07-05T01:58:56.268Z,96.20
2017-07-05T02:01:25.376Z,96.20
2017-07-05T02:03:53.695Z,96.10
2017-07-05T02:06:22.013Z,95.70
2017-07-05T02:08:51.092Z,95.50
2017-07-05T02:11:19.426Z,95.40
2017-07-05T02:13:47.727Z,95.50
2017-07-05T02:16:16.154Z,95.50
2017-07-05T02:18:44.529Z,95.50
2017-07-05T02:21:13.600Z,96.00
2017-07-05T02:23:41.915Z,96.00
2017-07-05T02:26:10.267Z,96.10
2017-07-05T02:28:39.365Z,96.70
2017-07-05T02:31:08.460Z,96.90
2017-07-05T02:33:37.576Z,97.10
2017-07-05T02:36:06.623Z,97.50
2017-07-05T02:38:35.237Z,97.50
2017-07-05T02:41:03.716Z,97.80
2017-07-05T02:43:32.890Z,98.20
2017-07-05T02:46:01.293Z,98.10
2017-07-05T02:48:30.354Z,98.30
2017-07-05T02:50:58.772Z,98.20
2017-07-05T02:53:27.834Z,97.60
2017-07-05T02:55:56.332Z,97.60
2017-07-05T02:58:25.429Z,97.80
2017-07-05T03:00:54.495Z,98.00
2017-07-05T03:03:22.819Z,97.90
2017-07-05T03:05:51.185Z,98.10
2017-07-05T03:08:20.275Z,97.90
2017-07-05T03:10:48.755Z,97.80
2017-07-05T03:13:17.857Z,97.50
2017-07-05T03:15:46.915Z,97.00
2017-07-05T03:18:15.228Z,97.00
2017-07-05T03:20:44.315Z,97.20
2017-07-05T03:23:12.799Z,97.20
2017-07-05T03:25:41.279Z,97.30
2017-07-05T03:28:10.376Z,97.30
2017-07-05T03:30:38.715Z,97.30
2017-07-05T03:33:07.035Z,97.20
2017-07-05T03:35:36.107Z,97.00
2017-07-05T03:38:05.178Z,97.00
2017-07-05T03:40:33.696Z,97.00
2017-07-05T03:43:02.762Z,98.10
2017-07-05T03:45:31.165Z,98.10
2017-07-05T03:48:00.373Z,99.40
2017-07-05T03:50:29.803Z,99.80
2017-07-05T03:52:58.111Z,99.90
2017-07-05T03:55:26.421Z,99.90
2017-07-05T03:57:55.515Z,99.90
2017-07-05T04:00:23.895Z,99.90
2017-07-05T04:02:53.195Z,99.90
2017-07-05T04:05:22.380Z,99.90
2017-07-05T04:07:51.496Z,99.90
2017-07-05T04:10:20.681Z,99.90
2017-07-05T04:12:49.750Z,99.90
2017-07-05T04:15:18.084Z,99.90
2017-07-05T04:17:46.431Z,99.90
2017-07-05T04:20:15.516Z,99.90
2017-07-05T04:22:43.903Z,99.90
2017-07-05T04:25:12.380Z,99.90
2017-07-05T04:27:40.859Z,99.90
2017-07-05T04:30:09.812Z,99.90
2017-07-05T04:32:38.135Z,99.90
2017-07-05T04:35:07.186Z,99.90
2017-07-05T04:37:35.496Z,99.90
2017-07-05T04:40:03.787Z,99.90
2017-07-05T04:42:32.160Z,99.90
2017-07-05T04:45:00.648Z,99.90
2017-07-05T04:47:29.731Z,99.90
2017-07-05T04:49:58.793Z,99.90
2017-07-05T04:52:27.316Z,99.90
2017-07-05T04:54:55.589Z,99.90
2017-07-05T04:57:23.964Z,99.90
2017-07-05T04:59:53.051Z,99.90
2017-07-05T05:02:21.431Z,99.90
2017-07-05T05:04:49.758Z,99.90
2017-07-05T05:07:18.072Z,99.90
2017-07-05T05:09:46.671Z,99.90
2017-07-05T05:12:16.064Z,99.90
2017-07-05T05:14:45.174Z,99.90
2017-07-05T05:17:13.543Z,99.90
2017-07-05T05:19:41.920Z,99.90
2017-07-05T05:22:10.310Z,99.90
2017-07-05T05:24:39.086Z,99.90
2017-07-05T05:27:07.464Z,99.90
2017-07-05T05:29:35.907Z,99.90
2017-07-05T05:32:04.431Z,99.90
2017-07-05T05:34:33.520Z,99.90
2017-07-05T05:37:02.883Z,99.90
2017-07-05T05:39:31.197Z,99.90
2017-07-05T05:42:00.274Z,99.90
2017-07-05T05:44:28.657Z,99.90
2017-07-05T05:46:56.933Z,99.90
2017-07-05T05:49:25.342Z,99.90
2017-07-05T05:51:54.686Z,99.90
2017-07-05T05:54:23.101Z,99.90
2017-07-05T05:56:52.185Z,99.90
2017-07-05T05:59:20.577Z,99.90
2017-07-05T06:01:49.657Z,99.90
2017-07-05T06:04:18.050Z,99.90
2017-07-05T06:06:47.146Z,99.90
2017-07-05T06:09:16.238Z,99.90
2017-07-05T06:11:45.484Z,99.90
2017-07-05T06:14:13.815Z,99.90
2017-07-05T06:16:42.390Z,99.90
2017-07-05T06:19:11.475Z,99.90
2017-07-05T06:21:40.571Z,99.90
2017-07-05T06:24:08.966Z,99.90
2017-07-05T06:26:38.072Z,99.90
2017-07-05T06:29:07.155Z,99.90
2017-07-05T06:31:36.229Z,99.90
2017-07-05T06:34:04.887Z,99.90
2017-07-05T06:36:33.185Z,99.90
2017-07-05T06:39:01.589Z,99.90
2017-07-05T06:41:30.693Z,99.70
2017-07-05T06:43:59.780Z,99.70
2017-07-05T06:46:28.872Z,99.50
2017-07-05T06:48:57.251Z,99.50
2017-07-05T06:51:25.732Z,99.60
2017-07-05T06:53:54.144Z,99.60
2017-07-05T06:56:22.437Z,99.70
2017-07-05T06:58:51.063Z,99.60
2017-07-05T07:01:19.376Z,99.40
2017-07-05T07:03:47.708Z,99.20
2017-07-05T07:06:16.795Z,99.00
2017-07-05T07:08:46.119Z,98.40
2017-07-05T07:11:14.415Z,98.30
2017-07-05T07:13:42.772Z,97.70
2017-07-05T07:16:11.167Z,97.70
2017-07-05T07:18:39.484Z,97.90
2017-07-05T07:21:07.818Z,97.70
2017-07-05T07:23:36.234Z,97.60
2017-07-05T07:26:05.274Z,97.50
2017-07-05T07:28:34.471Z,97.50
2017-07-05T07:31:03.571Z,97.70
2017-07-05T07:33:32.675Z,98.30
2017-07-05T07:36:00.992Z,98.30
2017-07-05T07:38:29.325Z,99.00
2017-07-05T07:40:58.382Z,99.90
2017-07-05T07:43:26.714Z,99.90
2017-07-05T07:45:55.005Z,99.90
2017-07-05T07:48:23.554Z,99.90
2017-07-05T07:50:52.618Z,99.90
2017-07-05T07:53:20.927Z,99.90
2017-07-05T07:55:49.310Z,99.90
2017-07-05T07:58:17.780Z,99.90
2017-07-05T08:00:46.862Z,99.90
2017-07-05T08:03:15.255Z,99.90
2017-07-05T08:05:43.837Z,99.90
2017-07-05T08:08:12.903Z,99.90
2017-07-05T08:10:41.199Z,99.90
2017-07-05T08:13:10.302Z,99.90
2017-07-05T08:15:38.626Z,99.90
2017-07-05T08:18:06.963Z,99.90
2017-07-05T08:20:35.278Z,99.90
2017-07-05T08:23:03.812Z,99.90
2017-07-05T08:25:32.143Z,99.90
2017-07-05T08:28:00.504Z,99.90
2017-07-05T08:30:28.847Z,99.80
2017-07-05T08:32:57.437Z,99.70
2017-07-05T08:35:26.490Z,97.10
2017-07-05T08:37:54.798Z,97.00
2017-07-05T08:40:23.890Z,96.20
2017-07-05T08:42:52.214Z,96.20
2017-07-05T08:45:20.546Z,95.70
2017-07-05T08:47:48.879Z,94.20
2017-07-05T08:50:17.211Z,93.60
2017-07-05T08:52:46.275Z,92.20
2017-07-05T08:55:14.657Z,92.20
2017-07-05T08:57:43.744Z,90.60
2017-07-05T09:00:12.088Z,90.60
2017-07-05T09:02:40.405Z,89.90
2017-07-05T09:05:09.842Z,89.30
2017-07-05T09:07:38.293Z,89.10
2017-07-05T09:10:07.371Z,88.60
2017-07-05T09:12:35.706Z,88.50
2017-07-05T09:15:04.016Z,87.00
2017-07-05T09:17:32.424Z,84.20
2017-07-05T09:20:01.527Z,80.10
2017-07-05T09:22:30.619Z,81.70
2017-07-05T09:24:58.999Z,81.60
2017-07-05T09:27:27.880Z,81.90
2017-07-05T09:29:56.171Z,80.10
2017-07-05T09:32:24.479Z,78.70
2017-07-05T09:34:52.812Z,78.70
2017-07-05T09:37:21.925Z,79.00
2017-07-05T09:39:51.008Z,80.50
2017-07-05T09:42:19.390Z,80.40
2017-07-05T09:44:48.479Z,81.10
2017-07-05T09:47:17.568Z,80.20
2017-07-05T09:49:46.160Z,79.30
2017-07-05T09:52:15.214Z,80.80
2017-07-05T09:54:43.540Z,80.70
2017-07-05T09:57:11.907Z,81.10
2017-07-05T09:59:41.067Z,82.30
2017-07-05T10:02:09.406Z,82.60
2017-07-05T10:04:37.726Z,83.00
2017-07-05T10:07:06.059Z,82.50
2017-07-05T10:09:34.387Z,82.20
2017-07-05T10:12:02.706Z,82.30
2017-07-05T10:14:31.063Z,82.50
2017-07-05T10:16:59.515Z,81.20
2017-07-05T10:19:28.645Z,80.10
2017-07-05T10:21:56.942Z,80.00
2017-07-05T10:24:25.292Z,77.90
2017-07-05T10:26:53.609Z,78.30
2017-07-05T10:29:21.940Z,77.20
2017-07-05T10:31:50.301Z,76.20
2017-07-05T10:34:19.387Z,73.40
2017-07-05T10:36:47.727Z,73.00
2017-07-05T10:39:16.040Z,72.80
2017-07-05T10:41:45.267Z,72.40
2017-07-05T10:44:13.584Z,72.40
2017-07-05T10:46:41.936Z,72.70
2017-07-05T10:49:10.259Z,72.10
2017-07-05T10:51:38.676Z,71.90
2017-07-05T10:54:07.017Z,71.70
2017-07-05T10:56:35.325Z,71.60
2017-07-05T10:59:04.529Z,70.90
2017-07-05T11:01:32.836Z,70.80
2017-07-05T11:04:01.879Z,70.50
2017-07-05T11:06:30.965Z,68.90
2017-07-05T11:08:59.367Z,68.90
2017-07-05T11:11:28.569Z,74.30
2017-07-05T11:13:56.887Z,74.30
2017-07-05T11:16:25.196Z,74.00
2017-07-05T11:18:54.293Z,74.40
2017-07-05T11:21:22.688Z,73.60
2017-07-05T11:23:51.751Z,76.60
2017-07-05T11:26:20.267Z,76.40
2017-07-05T11:28:49.321Z,77.70
2017-07-05T11:31:17.643Z,77.50
2017-07-05T11:33:46.831Z,77.60
2017-07-05T11:36:15.329Z,77.60
2017-07-05T11:38:44.471Z,77.40
2017-07-05T11:41:13.608Z,76.40
2017-07-05T11:43:43.120Z,75.90
2017-07-05T11:46:11.495Z,75.90
2017-07-05T11:48:39.811Z,76.40
2017-07-05T11:51:08.152Z,76.70
2017-07-05T11:53:36.630Z,76.00
2017-07-05T11:56:04.999Z,74.30
2017-07-05T11:58:34.103Z,70.00
2017-07-05T12:01:02.439Z,69.90
2017-07-05T12:03:30.752Z,70.60
2017-07-05T12:05:59.132Z,68.60
2017-07-05T12:08:27.507Z,68.50
2017-07-05T12:10:56.799Z,71.00
2017-07-05T12:13:25.087Z,70.90
2017-07-05T12:15:53.464Z,72.20
2017-07-05T12:18:22.543Z,69.90
2017-07-05T12:20:51.629Z,69.20
2017-07-05T12:23:20.023Z,69.10
2017-07-05T12:25:49.844Z,67.60
2017-07-05T12:28:19.033Z,65.70
2017-07-05T12:30:48.130Z,64.80
2017-07-05T12:33:16.564Z,64.60
2017-07-05T12:35:44.888Z,65.90
2017-07-05T12:38:13.372Z,66.50
2017-07-05T12:40:41.854Z,68.60
2017-07-05T12:43:10.169Z,69.20
2017-07-05T12:45:38.523Z,69.50
2017-07-05T12:48:06.880Z,67.40
2017-07-05T12:50:36.908Z,65.30
2017-07-05T12:53:05.991Z,64.40
2017-07-05T12:55:34.488Z,64.40
2017-07-05T12:58:02.857Z,66.20
2017-07-05T13:00:31.156Z,66.80
2017-07-05T13:02:59.519Z,67.60
2017-07-05T13:05:27.817Z,67.30
2017-07-05T13:07:56.185Z,67.30
2017-07-05T13:10:24.485Z,67.80
2017-07-05T13:12:53.176Z,67.80
2017-07-05T13:15:21.642Z,68.70
2017-07-05T13:17:50.823Z,69.20
2017-07-05T13:20:20.012Z,66.80
2017-07-05T13:22:48.325Z,66.80
2017-07-05T13:25:16.683Z,68.60
2017-07-05T13:27:45.060Z,67.90
2017-07-05T13:30:13.404Z,69.20
2017-07-05T13:32:41.720Z,68.10
2017-07-05T13:35:10.180Z,69.10
2017-07-05T13:37:38.525Z,68.30
2017-07-05T13:40:07.632Z,67.60
2017-07-05T13:42:36.013Z,67.50
2017-07-05T13:45:05.105Z,67.10
2017-07-05T13:47:34.275Z,67.90
2017-07-05T13:50:02.591Z,67.90
2017-07-05T13:52:30.919Z,67.60
2017-07-05T13:54:59.331Z,68.30
2017-07-05T13:57:28.833Z,69.60
2017-07-05T13:59:57.164Z,69.50
2017-07-05T14:02:25.496Z,69.40
2017-07-05T14:04:53.826Z,69.00
2017-07-05T14:07:22.145Z,68.30
2017-07-05T14:09:51.247Z,67.60
2017-07-05T14:12:19.561Z,67.60
2017-07-05T14:14:48.092Z,67.10
2017-07-05T14:17:17.166Z,66.10
2017-07-05T14:19:45.450Z,66.00
2017-07-05T14:22:13.796Z,66.60
2017-07-05T14:24:42.107Z,64.80
2017-07-05T14:27:10.503Z,64.60
2017-07-05T14:29:39.700Z,65.20
2017-07-05T14:32:08.091Z,65.00
2017-07-05T14:34:36.558Z,65.70
2017-07-05T14:37:04.915Z,67.10
2017-07-05T14:39:33.987Z,71.60
2017-07-05T14:42:02.503Z,70.70
2017-07-05T14:44:31.508Z,70.30
2017-07-05T14:47:00.580Z,71.30
2017-07-05T14:49:29.786Z,70.80
2017-07-05T14:51:59.283Z,70.70
2017-07-05T14:54:28.488Z,71.50
2017-07-05T14:56:57.779Z,72.10
2017-07-05T14:59:27.088Z,72.60
2017-07-05T15:01:56.170Z,73.00
2017-07-05T15:04:24.458Z,72.90
2017-07-05T15:06:53.552Z,73.00
2017-07-05T15:09:23.230Z,73.70
2017-07-05T15:11:51.639Z,73.70
2017-07-05T15:14:19.967Z,73.90
2017-07-05T15:16:48.391Z,70.10
2017-07-05T15:19:16.835Z,67.90
2017-07-05T15:21:45.385Z,65.30
2017-07-05T15:24:13.837Z,62.50
2017-07-05T15:26:42.960Z,60.40
2017-07-05T15:29:11.295Z,60.40
2017-07-05T15:31:39.603Z,61.60
2017-07-05T15:34:07.956Z,62.30
2017-07-05T15:36:37.046Z,58.60
2017-07-05T15:39:05.434Z,59.10
2017-07-05T15:41:34.539Z,56.20
2017-07-05T15:44:02.923Z,56.20
2017-07-05T15:46:31.235Z,56.80
2017-07-05T15:48:59.767Z,56.50
2017-07-05T15:51:28.099Z,56.40
2017-07-05T15:53:56.575Z,56.80
2017-07-05T15:56:27.756Z,57.60
2017-07-05T15:58:56.839Z,55.40
2017-07-05T16:01:25.145Z,55.30
2017-07-05T16:03:54.224Z,52.90
2017-07-05T16:06:23.352Z,52.80
2017-07-05T16:08:51.972Z,52.70
2017-07-05T16:11:20.464Z,52.70
2017-07-05T16:13:48.761Z,52.60
2017-07-05T16:16:17.524Z,53.50
2017-07-05T16:18:45.888Z,52.90
2017-07-05T16:21:14.221Z,53.70
2017-07-05T16:23:43.416Z,53.10
2017-07-05T16:26:12.491Z,53.20
2017-07-05T16:28:40.881Z,53.10
2017-07-05T16:31:10.708Z,53.50
2017-07-05T16:33:39.384Z,53.50
2017-07-05T16:36:07.763Z,52.50
2017-07-05T16:38:36.071Z,50.80
2017-07-05T16:41:04.400Z,52.20
2017-07-05T16:43:33.511Z,52.70
2017-07-05T16:46:01.848Z,52.60
2017-07-05T16:48:30.156Z,52.90
2017-07-05T16:50:59.665Z,51.20
2017-07-05T16:53:27.995Z,51.20
2017-07-05T16:55:56.323Z,50.10
2017-07-05T16:58:24.783Z,49.20
2017-07-05T17:00:53.896Z,46.90
2017-07-05T17:03:22.385Z,46.80
2017-07-05T17:05:50.755Z,47.10
2017-07-05T17:08:19.441Z,47.30
2017-07-05T17:10:47.823Z,46.80
2017-07-05T17:13:16.133Z,46.50
2017-07-05T17:15:44.490Z,46.00
2017-07-05T17:18:12.787Z,45.40
2017-07-05T17:20:42.456Z,42.50
2017-07-05T17:23:11.547Z,42.10
2017-07-05T17:25:40.643Z,41.50
2017-07-05T17:28:09.944Z,41.20
2017-07-05T17:30:38.266Z,41.10
2017-07-05T17:33:06.775Z,40.90
2017-07-05T17:35:35.084Z,41.70
2017-07-05T17:38:03.450Z,41.00
2017-07-05T17:40:33.207Z,43.70
2017-07-05T17:43:01.747Z,43.60
2017-07-05T17:45:30.147Z,44.30
2017-07-05T17:47:58.590Z,46.90
2017-07-05T17:50:27.674Z,50.10
2017-07-05T17:52:55.982Z,50.10
2017-07-05T17:55:24.331Z,51.60
2017-07-05T17:57:52.736Z,53.00
2017-07-05T18:00:21.114Z,53.80
2017-07-05T18:02:49.426Z,55.10
2017-07-05T18:05:18.067Z,56.20
2017-07-05T18:07:46.391Z,56.80
2017-07-05T18:10:14.740Z,57.80
2017-07-05T18:12:43.312Z,58.50
2017-07-05T18:15:11.638Z,60.00
2017-07-05T18:17:39.967Z,60.70
2017-07-05T18:20:08.300Z,62.20
2017-07-05T18:22:36.624Z,63.60
2017-07-05T18:25:05.712Z,66.00
2017-07-05T18:27:34.420Z,65.70
2017-07-05T18:30:02.777Z,66.70
2017-07-05T18:32:31.848Z,68.80
2017-07-05T18:35:00.181Z,68.80
2017-07-05T18:37:28.629Z,70.20
2017-07-05T18:39:57.708Z,72.00
2017-07-05T18:42:26.156Z,71.90
2017-07-05T18:44:55.223Z,73.00
2017-07-05T18:47:23.551Z,74.10
2017-07-05T18:49:52.840Z,75.70
2017-07-05T18:52:21.346Z,74.70
2017-07-05T18:54:50.438Z,76.40
2017-07-05T18:57:19.518Z,77.40
2017-07-05T18:59:48.005Z,77.30
2017-07-05T19:02:16.297Z,78.60
2017-07-05T19:04:45.351Z,80.20
2017-07-05T19:07:13.663Z,80.00
2017-07-05T19:09:41.973Z,80.40
2017-07-05T19:12:10.323Z,81.20
2017-07-05T19:14:39.377Z,82.60
2017-07-05T19:17:08.003Z,82.40
2017-07-05T19:19:36.301Z,82.80
2017-07-05T19:22:04.652Z,82.70
2017-07-05T19:24:33.006Z,83.60
2017-07-05T19:27:01.324Z,84.70
2017-07-05T19:29:29.691Z,85.50
2017-07-05T19:31:58.747Z,87.30
2017-07-05T19:34:27.968Z,87.90
2017-07-05T19:36:56.305Z,87.90
2017-07-05T19:39:24.983Z,88.20
2017-07-05T19:41:53.317Z,88.50
2017-07-05T19:44:21.664Z,88.80
2017-07-05T19:46:49.980Z,89.60
2017-07-05T19:49:18.289Z,90.10
2017-07-05T19:51:46.606Z,90.30
2017-07-05T19:54:15.683Z,91.20
2017-07-05T19:56:44.108Z,91.10
2017-07-05T19:59:12.423Z,91.30
2017-07-05T20:01:40.714Z,91.50
2017-07-05T20:04:09.043Z,91.70
2017-07-05T20:06:37.351Z,91.90
2017-07-05T20:09:05.692Z,92.10
2017-07-05T20:11:34.000Z,92.60
2017-07-05T20:14:02.434Z,92.80
2017-07-05T20:16:30.747Z,93.10
2017-07-05T20:18:59.079Z,93.10
2017-07-05T20:21:27.412Z,93.40
2017-07-05T20:23:55.720Z,93.80
2017-07-05T20:26:24.022Z,94.00
2017-07-05T20:28:52.366Z,94.20
2017-07-05T20:31:20.682Z,94.70
2017-07-05T20:33:48.991Z,94.90
2017-07-05T20:36:17.421Z,95.20
2017-07-05T20:38:46.491Z,95.70
2017-07-05T20:41:14.798Z,95.60
2017-07-05T20:43:43.172Z,96.00
2017-07-05T20:46:12.232Z,96.50
2017-07-05T20:48:40.670Z,96.50
2017-07-05T20:51:08.960Z,96.80
2017-07-05T20:53:37.400Z,97.10
2017-07-05T20:56:06.493Z,97.50
2017-07-05T20:58:35.555Z,97.50
2017-07-05T21:01:03.971Z,97.70
2017-07-05T21:03:33.051Z,98.10
2017-07-05T21:06:01.439Z,98.10
2017-07-05T21:08:30.542Z,98.60
2017-07-05T21:10:58.918Z,98.50
2017-07-05T21:13:28.012Z,98.90
2017-07-05T21:15:57.199Z,99.10
2017-07-05T21:18:26.270Z,99.30
2017-07-05T21:20:54.587Z,99.30
2017-07-05T21:23:22.895Z,99.60
2017-07-05T21:25:51.438Z,99.50
2017-07-05T21:28:19.836Z,99.60
2017-07-05T21:30:48.189Z,99.80
2017-07-05T21:33:17.287Z,99.80
2017-07-05T21:35:46.367Z,99.50
2017-07-05T21:38:14.666Z,99.50
2017-07-05T21:40:43.031Z,99.60
2017-07-05T21:43:12.334Z,99.50
2017-07-05T21:45:41.437Z,99.40
2017-07-05T21:48:09.805Z,99.30
2017-07-05T21:50:39.715Z,99.30
2017-07-05T21:53:08.796Z,99.20
2017-07-05T21:55:37.388Z,99.10
2017-07-05T21:58:06.448Z,99.10
2017-07-05T22:00:34.752Z,99.10
2017-07-05T22:03:03.862Z,99.30
2017-07-05T22:05:32.924Z,99.10
2017-07-05T22:08:01.266Z,99.00
2017-07-05T22:10:29.568Z,99.20
2017-07-05T22:12:57.987Z,99.50
2017-07-05T22:15:26.308Z,99.70
2017-07-05T22:17:54.641Z,99.90
2017-07-05T22:20:23.044Z,99.90
2017-07-05T22:22:51.602Z,99.90
2017-07-05T22:25:19.907Z,99.90
2017-07-05T22:27:48.211Z,99.90
2017-07-05T22:30:16.547Z,99.90
2017-07-05T22:32:45.010Z,99.90
2017-07-05T22:35:13.356Z,99.90
2017-07-05T22:37:41.770Z,99.90
2017-07-05T22:40:10.108Z,99.90
2017-07-05T22:42:38.527Z,99.90
2017-07-05T22:45:08.027Z,99.90
2017-07-05T22:47:36.323Z,99.90
2017-07-05T22:50:04.681Z,99.90
2017-07-05T22:52:33.766Z,99.90
2017-07-05T22:55:02.155Z,99.90
2017-07-05T22:57:31.231Z,99.90
2017-07-05T23:00:00.342Z,99.90
2017-07-05T23:02:29.448Z,99.90
2017-07-05T23:04:58.615Z,99.90
2017-07-05T23:07:27.719Z,99.90
2017-07-05T23:09:56.803Z,99.90
2017-07-05T23:12:25.127Z,99.90
2017-07-05T23:14:53.421Z,99.90
2017-07-05T23:17:22.160Z,99.90
2017-07-05T23:19:50.448Z,99.90
2017-07-05T23:22:18.814Z,99.90
2017-07-05T23:24:47.908Z,99.90
2017-07-05T23:27:16.972Z,99.90
2017-07-05T23:29:45.386Z,99.90
2017-07-05T23:32:14.494Z,99.90
2017-07-05T23:34:42.819Z,99.90
2017-07-05T23:37:11.130Z,99.90
2017-07-05T23:39:39.613Z,99.90
2017-07-05T23:42:07.932Z,99.90
2017-07-05T23:44:36.328Z,99.90
2017-07-05T23:47:04.654Z,99.90
2017-07-05T23:49:32.951Z,99.90
2017-07-05T23:52:01.404Z,99.90
2017-07-05T23:54:29.877Z,99.90
2017-07-05T23:56:58.970Z,99.90
2017-07-05T23:59:28.168Z,99.90
